»·PEaware :: UAL870 KGJT-KABQ

UAL870 :: KGJT-KABQ

FLIGHT INFORMATION

Flight Status: Arrived
Operator:
United Airlines
More flights by this operator :: More flights under this callsign
Pilot: Sanjiv S. (4490)
Aircraft: AIRBUS A320
(A320)
More flights by this aircraft type
Origin: KGJT Walker
United States
Destination: KABQ Albuquerque Intl Sunport
United States
More flights between these airports :: More routes between these airports
Route: JNC7 BRICK BRMLY LOWBO3
File this flight plan on PilotEdge
Remarks:
Altitude:
(Current/Filed)
29,000ft
Speed:
(Current/Filed)
420kts
Departed: 03-Jan-18 09:41 AM
Arrived: 03-Jan-18 10:31 AM
Distance/Time
Traveled:
261nm/0:49
Distance/Time
To Go:
Arrived

Flight Plot

Page will automatically refresh every two minutes.

Flight plan parsing failed; only flown route is shown


Map Options




Map Legend


Flown Route
Filed Route
Departure Airport
Arrival Airport
Navaid (VOR, NDB)
Fix

Horizontal Profiles

Position Reports

Time Latitude Longitude Heading Altitude Ground
Speed
03-Jan-18 09:04 39.122833 -108.528210 254 4811ft 0kts
03-Jan-18 09:05 39.122833 -108.528210 254 4811ft 0kts
03-Jan-18 09:06 39.122833 -108.528210 254 4811ft 0kts
03-Jan-18 09:07 39.122833 -108.528210 254 4811ft 0kts
03-Jan-18 09:08 39.122833 -108.528210 254 4811ft 0kts
03-Jan-18 09:09 39.122833 -108.528210 254 4811ft 0kts
03-Jan-18 09:10 39.122833 -108.528210 254 4811ft 0kts
03-Jan-18 09:11 39.122833 -108.528210 254 4811ft 0kts
03-Jan-18 09:12 39.122833 -108.528210 254 4811ft 0kts
03-Jan-18 09:13 39.122833 -108.528210 254 4811ft 0kts
03-Jan-18 09:14 39.122833 -108.528210 254 4811ft 0kts
03-Jan-18 09:15 39.122833 -108.528210 254 4811ft 0kts
03-Jan-18 09:16 39.122833 -108.528210 254 4811ft 0kts
03-Jan-18 09:17 39.122833 -108.528210 254 4811ft 0kts
03-Jan-18 09:18 39.122833 -108.528210 254 4811ft 0kts
03-Jan-18 09:19 39.122833 -108.528210 254 4811ft 0kts
03-Jan-18 09:20 39.122833 -108.528210 254 4811ft 0kts
03-Jan-18 09:21 39.122833 -108.528210 254 4811ft 0kts
03-Jan-18 09:22 39.122833 -108.528210 254 4811ft 0kts
03-Jan-18 09:23 39.122833 -108.528210 254 4811ft 0kts
03-Jan-18 09:24 39.122833 -108.528210 254 4811ft 0kts
03-Jan-18 09:25 39.122833 -108.528210 254 4811ft 0kts
03-Jan-18 09:26 39.122833 -108.528210 254 4811ft 0kts
03-Jan-18 09:27 39.122833 -108.528209 254 4811ft 0kts
03-Jan-18 09:28 39.122833 -108.528209 254 4811ft 0kts
03-Jan-18 09:29 39.122833 -108.528209 254 4811ft 0kts
03-Jan-18 09:30 39.122833 -108.528209 254 4811ft 0kts
03-Jan-18 09:31 39.122833 -108.528209 254 4811ft 0kts
03-Jan-18 09:32 39.122833 -108.528209 254 4811ft 0kts
03-Jan-18 09:33 39.122833 -108.528209 254 4811ft 0kts
03-Jan-18 09:34 39.122833 -108.528209 254 4811ft 0kts
03-Jan-18 09:35 39.122833 -108.528209 254 4811ft 0kts
03-Jan-18 09:36 39.122833 -108.528209 254 4811ft 0kts
03-Jan-18 09:37 39.122859 -108.528083 254 4811ft 2kts
03-Jan-18 09:38 39.122997 -108.527425 254 4811ft 1kts
03-Jan-18 09:39 39.122910 -108.526871 305 4811ft 0kts
03-Jan-18 09:40 39.122909 -108.526870 305 4811ft 0kts
03-Jan-18 09:41 39.123111 -108.527250 304 4811ft 2kts
03-Jan-18 09:42 39.124469 -108.527973 356 4811ft 10kts
03-Jan-18 09:43 39.127607 -108.533374 305 4811ft 26kts
03-Jan-18 09:44 39.132507 -108.542193 305 4811ft 29kts
03-Jan-18 09:45 39.134129 -108.544839 343 4811ft 0kts
03-Jan-18 09:46 39.134592 -108.543649 125 4811ft 0kts
03-Jan-18 09:47 39.118342 -108.514667 125 5595ft 166kts
03-Jan-18 09:48 39.079450 -108.507082 242 7990ft 204kts
03-Jan-18 09:49 39.069723 -108.590395 250 10080ft 268kts
03-Jan-18 09:50 39.011577 -108.649461 183 12806ft 307kts
03-Jan-18 09:51 38.935825 -108.592204 126 14188ft 366kts
03-Jan-18 09:52 38.882885 -108.504915 126 16012ft 382kts
03-Jan-18 09:53 38.816936 -108.397766 127 18162ft 394kts
03-Jan-18 09:54 38.768424 -108.320491 133 19526ft 404kts
03-Jan-18 09:55 38.663071 -108.276891 173 21307ft 418kts
03-Jan-18 09:56 38.547015 -108.260263 173 22943ft 429kts
03-Jan-18 09:57 38.427901 -108.243160 173 24467ft 438kts
03-Jan-18 09:58 38.306203 -108.225758 173 25829ft 447kts
03-Jan-18 09:59 38.200785 -108.210739 173 26921ft 454kts
03-Jan-18 10:00 38.079581 -108.193523 173 28058ft 462kts
03-Jan-18 10:01 37.952497 -108.175533 173 29050ft 468kts
03-Jan-18 10:02 37.842174 -108.159962 173 29068ft 468kts
03-Jan-18 10:03 37.715374 -108.142129 173 29069ft 470kts
03-Jan-18 10:04 37.586804 -108.124115 173 29059ft 469kts
03-Jan-18 10:05 37.459111 -108.106284 173 29070ft 468kts
03-Jan-18 10:06 37.330906 -108.088443 173 29063ft 469kts
03-Jan-18 10:07 37.202605 -108.070653 173 29069ft 468kts
03-Jan-18 10:08 37.074281 -108.052912 173 29073ft 468kts
03-Jan-18 10:09 36.946076 -108.035253 173 29068ft 468kts
03-Jan-18 10:10 36.868900 -108.024651 173 29070ft 468kts
03-Jan-18 10:11 36.750293 -108.008399 173 29068ft 468kts
03-Jan-18 10:12 36.621011 -107.990742 173 29068ft 468kts
03-Jan-18 10:13 36.494504 -107.973523 173 29066ft 468kts
03-Jan-18 10:14 36.365825 -107.956066 173 29066ft 469kts
03-Jan-18 10:15 36.236779 -107.938615 173 29068ft 468kts
03-Jan-18 10:16 36.113946 -107.922016 173 28620ft 431kts
03-Jan-18 10:17 36.003559 -107.878581 142 27463ft 422kts
03-Jan-18 10:18 35.910614 -107.792421 142 26337ft 414kts
03-Jan-18 10:19 35.829743 -107.717889 142 24895ft 404kts
03-Jan-18 10:20 35.741767 -107.638773 143 23004ft 376kts
03-Jan-18 10:21 35.658351 -107.565799 143 21308ft 363kts
03-Jan-18 10:22 35.577401 -107.495098 143 19482ft 355kts
03-Jan-18 10:23 35.497903 -107.425809 143 17666ft 347kts
03-Jan-18 10:24 35.421513 -107.356401 128 15856ft 338kts
03-Jan-18 10:25 35.373586 -107.266535 121 14558ft 317kts
03-Jan-18 10:26 35.329401 -107.180606 120 13311ft 288kts
03-Jan-18 10:27 35.287456 -107.100203 129 11919ft 283kts
03-Jan-18 10:28 35.231654 -107.034618 135 10563ft 278kts
03-Jan-18 10:29 35.175348 -106.971608 136 9221ft 273kts
03-Jan-18 10:30 35.123478 -106.909717 133 8585ft 248kts
03-Jan-18 10:31 35.077316 -106.853849 133 8592ft 210kts
03-Jan-18 10:32 35.048706 -106.804027 104 7991ft 163kts
03-Jan-18 10:33 35.044149 -106.750894 85 7215ft 152kts
03-Jan-18 10:34 35.045277 -106.700820 88 6700ft 146kts
03-Jan-18 10:35 35.044481 -106.651481 88 5883ft 145kts
03-Jan-18 10:36 35.044280 -106.608018 89 5324ft 129kts
03-Jan-18 10:37 35.044757 -106.592024 66 5342ft 17kts
03-Jan-18 10:38 35.045524 -106.590892 61 5343ft 0kts
03-Jan-18 10:39 35.045869 -106.592025 257 5342ft 22kts
03-Jan-18 10:40 35.045735 -106.601551 269 5330ft 28kts
03-Jan-18 10:41 35.045802 -106.612057 270 5324ft 28kts
03-Jan-18 10:42 35.046778 -106.615413 11 5324ft 3kts

Navigation Log

Ident Type
Flight plan parsing failed, navigation log unavailable